sensor_id;sensor_type;location;lat;lon;timestamp;pressure;altitude;pressure_sealevel;temperature;humidity
76024;BME280;64719;52.124;6.226;2023-04-01T00:01:42;99212.44;;;9.51;100.00
76024;BME280;64719;52.124;6.226;2023-04-01T00:04:08;99213.25;;;9.51;100.00
76024;BME280;64719;52.124;6.226;2023-04-01T00:06:35;99212.97;;;9.53;100.00
76024;BME280;64719;52.124;6.226;2023-04-01T00:09:02;99206.75;;;9.52;100.00
76024;BME280;64719;52.124;6.226;2023-04-01T00:11:30;99208.63;;;9.52;100.00
76024;BME280;64719;52.124;6.226;2023-04-01T00:13:56;99208.63;;;9.52;100.00
76024;BME280;64719;52.124;6.226;2023-04-01T00:16:23;99209.44;;;9.52;100.00
76024;BME280;64719;52.124;6.226;2023-04-01T00:18:50;99211.34;;;9.52;100.00
76024;BME280;64719;52.124;6.226;2023-04-01T00:21:18;99215.13;;;9.51;100.00
76024;BME280;64719;52.124;6.226;2023-04-01T00:23:45;99207.31;;;9.54;100.00
76024;BME280;64719;52.124;6.226;2023-04-01T00:26:12;99205.91;;;9.52;100.00
76024;BME280;64719;52.124;6.226;2023-04-01T00:28:40;99218.66;;;9.51;100.00
76024;BME280;64719;52.124;6.226;2023-04-01T00:31:08;99212.16;;;9.52;100.00
76024;BME280;64719;52.124;6.226;2023-04-01T00:33:36;99212.16;;;9.52;100.00
76024;BME280;64719;52.124;6.226;2023-04-01T00:36:07;99210.53;;;9.51;100.00
76024;BME280;64719;52.124;6.226;2023-04-01T00:38:35;99208.63;;;9.52;100.00
76024;BME280;64719;52.124;6.226;2023-04-01T00:41:01;99211.59;;;9.50;100.00
76024;BME280;64719;52.124;6.226;2023-04-01T00:43:28;99214.03;;;9.52;100.00
76024;BME280;64719;52.124;6.226;2023-04-01T00:45:56;99213.25;;;9.51;100.00
76024;BME280;64719;52.124;6.226;2023-04-01T00:48:26;99206.19;;;9.50;100.00
76024;BME280;64719;52.124;6.226;2023-04-01T00:50:56;99208.91;;;9.50;100.00
76024;BME280;64719;52.124;6.226;2023-04-01T00:53:24;99221.38;;;9.51;100.00
76024;BME280;64719;52.124;6.226;2023-04-01T00:55:55;99229.22;;;9.53;100.00
76024;BME280;64719;52.124;6.226;2023-04-01T00:58:24;99221.09;;;9.53;100.00
76024;BME280;64719;52.124;6.226;2023-04-01T01:00:53;99214.59;;;9.54;100.00
76024;BME280;64719;52.124;6.226;2023-04-01T01:03:22;99224.59;;;9.53;100.00
76024;BME280;64719;52.124;6.226;2023-04-01T01:06:15;99223.00;;;9.52;100.00
76024;BME280;64719;52.124;6.226;2023-04-01T01:09:07;99219.47;;;9.52;100.00
76024;BME280;64719;52.124;6.226;2023-04-01T01:11:40;99224.88;;;9.52;100.00
76024;BME280;64719;52.124;6.226;2023-04-01T01:14:17;99230.03;;;9.53;100.00
76024;BME280;64719;52.124;6.226;2023-04-01T01:16:53;99223.00;;;9.52;100.00
76024;BME280;64719;52.124;6.226;2023-04-01T01:19:50;99220.84;;;9.54;100.00
76024;BME280;64719;52.124;6.226;2023-04-01T01:22:42;99225.97;;;9.51;100.00
76024;BME280;64719;52.124;6.226;2023-04-01T01:25:31;99228.97;;;9.54;100.00
76024;BME280;64719;52.124;6.226;2023-04-01T01:28:11;99230.59;;;9.55;100.00
76024;BME280;64719;52.124;6.226;2023-04-01T01:30:47;99230.59;;;9.55;100.00
76024;BME280;64719;52.124;6.226;2023-04-01T01:33:38;99234.38;;;9.54;100.00
76024;BME280;64719;52.124;6.226;2023-04-01T01:36:12;99233.28;;;9.55;100.00
76024;BME280;64719;52.124;6.226;2023-04-01T01:38:40;99230.59;;;9.55;100.00
76024;BME280;64719;52.124;6.226;2023-04-01T01:41:07;99236.81;;;9.56;100.00
76024;BME280;64719;52.124;6.226;2023-04-01T01:43:35;99233.84;;;9.57;100.00
76024;BME280;64719;52.124;6.226;2023-04-01T01:46:06;99225.16;;;9.55;100.00
76024;BME280;64719;52.124;6.226;2023-04-01T01:48:34;99237.09;;;9.54;100.00
76024;BME280;64719;52.124;6.226;2023-04-01T01:51:02;99233.03;;;9.57;100.00
76024;BME280;64719;52.124;6.226;2023-04-01T01:53:31;99235.44;;;9.53;100.00
76024;BME280;64719;52.124;6.226;2023-04-01T01:55:57;99235.19;;;9.55;100.00
76024;BME280;64719;52.124;6.226;2023-04-01T01:58:27;99235.75;;;9.57;100.00
76024;BME280;64719;52.124;6.226;2023-04-01T02:00:57;99237.34;;;9.58;100.00
76024;BME280;64719;52.124;6.226;2023-04-01T02:03:27;99239.00;;;9.59;100.00
76024;BME280;64719;52.124;6.226;2023-04-01T02:05:56;99236.56;;;9.57;100.00
76024;BME280;64719;52.124;6.226;2023-04-01T02:08:26;99243.84;;;9.57;100.00
76024;BME280;64719;52.124;6.226;2023-04-01T02:11:00;99246.31;;;9.58;100.00
76024;BME280;64719;52.124;6.226;2023-04-01T02:13:30;99255.25;;;9.59;100.00
76024;BME280;64719;52.124;6.226;2023-04-01T02:16:00;99249.00;;;9.58;100.00
76024;BME280;64719;52.124;6.226;2023-04-01T02:18:30;99257.13;;;9.58;100.00
76024;BME280;64719;52.124;6.226;2023-04-01T02:20:59;99256.31;;;9.58;100.00
76024;BME280;64719;52.124;6.226;2023-04-01T02:23:27;99253.59;;;9.58;100.00
76024;BME280;64719;52.124;6.226;2023-04-01T02:25:54;99253.59;;;9.58;100.00
76024;BME280;64719;52.124;6.226;2023-04-01T02:28:24;99253.06;;;9.61;100.00
76024;BME280;64719;52.124;6.226;2023-04-01T02:30:51;99261.47;;;9.59;100.00
76024;BME280;64719;52.124;6.226;2023-04-01T02:33:18;99261.19;;;9.61;100.00
76024;BME280;64719;52.124;6.226;2023-04-01T02:35:46;99257.69;;;9.60;100.00
76024;BME280;64719;52.124;6.226;2023-04-01T02:38:13;99263.38;;;9.59;100.00
76024;BME280;64719;52.124;6.226;2023-04-01T02:40:43;99263.63;;;9.57;100.00
76024;BME280;64719;52.124;6.226;2023-04-01T02:43:10;99262.00;;;9.56;100.00
76024;BME280;64719;52.124;6.226;2023-04-01T02:45:38;99271.19;;;9.55;100.00
76024;BME280;64719;52.124;6.226;2023-04-01T02:48:05;99278.25;;;9.56;100.00
76024;BME280;64719;52.124;6.226;2023-04-01T02:50:31;99280.16;;;9.56;100.00
76024;BME280;64719;52.124;6.226;2023-04-01T02:52:58;99275.53;;;9.51;100.00
76024;BME280;64719;52.124;6.226;2023-04-01T02:55:24;99277.16;;;9.52;100.00
76024;BME280;64719;52.124;6.226;2023-04-01T02:57:51;99277.66;;;9.49;100.00
76024;BME280;64719;52.124;6.226;2023-04-01T03:00:18;99279.56;;;9.49;100.00
76024;BME280;64719;52.124;6.226;2023-04-01T03:02:46;99273.59;;;9.47;100.00
76024;BME280;64719;52.124;6.226;2023-04-01T03:05:12;99276.31;;;9.47;100.00
76024;BME280;64719;52.124;6.226;2023-04-01T03:07:39;99272.78;;;9.46;100.00
76024;BME280;64719;52.124;6.226;2023-04-01T03:10:07;99286.84;;;9.43;100.00
76024;BME280;64719;52.124;6.226;2023-04-01T03:12:33;99286.00;;;9.43;100.00
76024;BME280;64719;52.124;6.226;2023-04-01T03:15:00;99290.63;;;9.42;100.00
76024;BME280;64719;52.124;6.226;2023-04-01T03:17:27;99288.97;;;9.41;100.00
76024;BME280;64719;52.124;6.226;2023-04-01T03:19:54;99287.94;;;9.42;100.00
76024;BME280;64719;52.124;6.226;2023-04-01T03:22:21;99296.06;;;9.42;100.00
76024;BME280;64719;52.124;6.226;2023-04-01T03:24:48;99291.97;;;9.40;100.00
76024;BME280;64719;52.124;6.226;2023-04-01T03:27:14;99296.06;;;9.42;100.00
76024;BME280;64719;52.124;6.226;2023-04-01T03:29:41;99295.19;;;9.37;100.00
76024;BME280;64719;52.124;6.226;2023-04-01T03:32:07;99296.31;;;9.41;100.00
76024;BME280;64719;52.124;6.226;2023-04-01T03:34:34;99300.06;;;9.40;100.00
76024;BME280;64719;52.124;6.226;2023-04-01T03:37:02;99302.78;;;9.40;100.00
76024;BME280;64719;52.124;6.226;2023-04-01T03:39:28;99306.84;;;9.37;100.00
76024;BME280;64719;52.124;6.226;2023-04-01T03:41:56;99300.06;;;9.40;100.00
76024;BME280;64719;52.124;6.226;2023-04-01T03:44:23;99306.84;;;9.37;100.00
76024;BME280;64719;52.124;6.226;2023-04-01T03:46:50;99313.88;;;9.38;100.00
76024;BME280;64719;52.124;6.226;2023-04-01T03:49:16;99307.94;;;9.36;100.00
76024;BME280;64719;52.124;6.226;2023-04-01T03:51:43;99308.72;;;9.37;100.00
76024;BME280;64719;52.124;6.226;2023-04-01T03:54:11;99306.84;;;9.37;100.00
76024;BME280;64719;52.124;6.226;2023-04-01T03:56:38;99311.16;;;9.38;100.00
76024;BME280;64719;52.124;6.226;2023-04-01T03:59:06;99313.06;;;9.38;100.00
76024;BME280;64719;52.124;6.226;2023-04-01T04:01:33;99310.38;;;9.38;100.00
76024;BME280;64719;52.124;6.226;2023-04-01T04:04:00;99311.16;;;9.38;100.00
76024;BME280;64719;52.124;6.226;2023-04-01T04:06:27;99317.66;;;9.37;100.00
76024;BME280;64719;52.124;6.226;2023-04-01T04:08:54;99317.09;;;9.35;100.00
76024;BME280;64719;52.124;6.226;2023-04-01T04:11:22;99315.75;;;9.32;100.00
76024;BME280;64719;52.124;6.226;2023-04-01T04:13:49;99317.63;;;9.32;100.00
76024;BME280;64719;52.124;6.226;2023-04-01T04:16:16;99319.78;;;9.30;100.00
76024;BME280;64719;52.124;6.226;2023-04-01T04:18:43;99324.94;;;9.32;100.00
76024;BME280;64719;52.124;6.226;2023-04-01T04:21:12;99323.28;;;9.30;100.00
76024;BME280;64719;52.124;6.226;2023-04-01T04:23:39;99318.72;;;9.31;100.00
76024;BME280;64719;52.124;6.226;2023-04-01T04:26:07;99330.06;;;9.28;100.00
76024;BME280;64719;52.124;6.226;2023-04-01T04:28:35;99327.91;;;9.30;100.00
76024;BME280;64719;52.124;6.226;2023-04-01T04:31:02;99324.38;;;9.29;100.00
76024;BME280;64719;52.124;6.226;2023-04-01T04:33:29;99330.88;;;9.28;100.00
76024;BME280;64719;52.124;6.226;2023-04-01T04:35:57;99332.75;;;9.28;100.00
76024;BME280;64719;52.124;6.226;2023-04-01T04:38:25;99337.09;;;9.29;100.00
76024;BME280;64719;52.124;6.226;2023-04-01T04:40:52;99337.09;;;9.29;100.00
76024;BME280;64719;52.124;6.226;2023-04-01T04:43:19;99335.47;;;9.28;100.00
76024;BME280;64719;52.124;6.226;2023-04-01T04:45:47;99333.84;;;9.27;100.00
76024;BME280;64719;52.124;6.226;2023-04-01T04:48:15;99337.59;;;9.26;100.00
76024;BME280;64719;52.124;6.226;2023-04-01T04:50:44;99341.41;;;9.25;100.00
76024;BME280;64719;52.124;6.226;2023-04-01T04:53:10;99338.69;;;9.25;100.00
76024;BME280;64719;52.124;6.226;2023-04-01T04:55:37;99345.19;;;9.24;100.00
76024;BME280;64719;52.124;6.226;2023-04-01T04:58:03;99348.44;;;9.26;100.00
76024;BME280;64719;52.124;6.226;2023-04-01T05:00:30;99346.81;;;9.25;100.00
76024;BME280;64719;52.124;6.226;2023-04-01T05:02:57;99353.84;;;9.21;100.00
76024;BME280;64719;52.124;6.226;2023-04-01T05:05:24;99349.78;;;9.23;100.00
76024;BME280;64719;52.124;6.226;2023-04-01T05:07:51;99356.28;;;9.22;100.00
76024;BME280;64719;52.124;6.226;2023-04-01T05:10:17;99357.91;;;9.23;100.00
76024;BME280;64719;52.124;6.226;2023-04-01T05:12:45;99353.56;;;9.22;100.00
76024;BME280;64719;52.124;6.226;2023-04-01T05:15:12;99361.69;;;9.22;100.00
76024;BME280;64719;52.124;6.226;2023-04-01T05:17:39;99356.53;;;9.21;100.00
76024;BME280;64719;52.124;6.226;2023-04-01T05:20:07;99357.91;;;9.23;100.00
76024;BME280;64719;52.124;6.226;2023-04-01T05:22:34;99364.66;;;9.21;100.00
76024;BME280;64719;52.124;6.226;2023-04-01T05:25:01;99363.06;;;9.25;100.00
76024;BME280;64719;52.124;6.226;2023-04-01T05:27:27;99365.19;;;9.23;100.00
76024;BME280;64719;52.124;6.226;2023-04-01T05:29:54;99365.50;;;9.26;100.00
76024;BME280;64719;52.124;6.226;2023-04-01T05:32:21;99374.72;;;9.25;100.00
76024;BME280;64719;52.124;6.226;2023-04-01T05:34:50;99371.19;;;9.25;100.00
76024;BME280;64719;52.124;6.226;2023-04-01T05:37:18;99373.56;;;9.21;100.00
76024;BME280;64719;52.124;6.226;2023-04-01T05:39:44;99373.63;;;9.26;100.00
76024;BME280;64719;52.124;6.226;2023-04-01T05:42:11;99380.66;;;9.27;100.00
76024;BME280;64719;52.124;6.226;2023-04-01T05:44:37;99382.31;;;9.28;100.00
76024;BME280;64719;52.124;6.226;2023-04-01T05:47:04;99389.09;;;9.31;100.00
76024;BME280;64719;52.124;6.226;2023-04-01T05:49:31;99388.25;;;9.30;100.00
76024;BME280;64719;52.124;6.226;2023-04-01T05:51:59;99381.22;;;9.29;100.00
76024;BME280;64719;52.124;6.226;2023-04-01T05:54:27;99391.00;;;9.36;100.00
76024;BME280;64719;52.124;6.226;2023-04-01T05:56:53;99396.16;;;9.37;100.00
76024;BME280;64719;52.124;6.226;2023-04-01T05:59:20;99403.25;;;9.43;100.00
76024;BME280;64719;52.124;6.226;2023-04-01T06:01:46;99411.13;;;9.45;100.00
76024;BME280;64719;52.124;6.226;2023-04-01T06:04:14;99410.28;;;9.44;100.00
76024;BME280;64719;52.124;6.226;2023-04-01T06:06:41;99406.84;;;9.54;100.00
76024;BME280;64719;52.124;6.226;2023-04-01T06:09:14;99413.66;;;9.61;100.00
76024;BME280;64719;52.124;6.226;2023-04-01T06:11:53;99427.28;;;9.71;100.00
76024;BME280;64719;52.124;6.226;2023-04-01T06:14:31;99419.50;;;9.80;100.00
76024;BME280;64719;52.124;6.226;2023-04-01T06:17:16;99429.81;;;9.88;100.00
76024;BME280;64719;52.124;6.226;2023-04-01T06:19:50;99416.06;;;9.94;100.00
76024;BME280;64719;52.124;6.226;2023-04-01T06:22:27;99428.25;;;9.92;100.00
76024;BME280;64719;52.124;6.226;2023-04-01T06:27:55;99440.47;;;9.99;100.00
76024;BME280;64719;52.124;6.226;2023-04-01T06:30:34;99439.44;;;10.05;100.00
76024;BME280;64719;52.124;6.226;2023-04-01T06:33:23;99434.91;;;10.21;100.00
76024;BME280;64719;52.124;6.226;2023-04-01T06:36:23;99443.75;;;10.06;100.00
76024;BME280;64719;52.124;6.226;2023-04-01T06:39:10;99443.31;;;10.19;100.00
76024;BME280;64719;52.124;6.226;2023-04-01T06:42:09;99448.78;;;10.24;100.00
76024;BME280;64719;52.124;6.226;2023-04-01T06:44:51;99452.50;;;10.13;100.00
76024;BME280;64719;52.124;6.226;2023-04-01T06:47:29;99464.25;;;10.29;100.00
76024;BME280;64719;52.124;6.226;2023-04-01T06:50:05;99463.53;;;10.48;100.00
76024;BME280;64719;52.124;6.226;2023-04-01T06:52:43;99467.63;;;10.56;100.00
76024;BME280;64719;52.124;6.226;2023-04-01T06:55:18;99473.63;;;10.63;100.00
76024;BME280;64719;52.124;6.226;2023-04-01T06:57:49;99469.91;;;10.84;100.00
76024;BME280;64719;52.124;6.226;2023-04-01T07:00:25;99476.09;;;10.69;100.00
76024;BME280;64719;52.124;6.226;2023-04-01T07:03:01;99473.97;;;10.76;100.00
76024;BME280;64719;52.124;6.226;2023-04-01T07:05:30;99477.56;;;11.07;100.00
76024;BME280;64719;52.124;6.226;2023-04-01T07:08:00;99482.19;;;11.11;100.00
76024;BME280;64719;52.124;6.226;2023-04-01T07:10:35;99490.59;;;11.10;100.00
76024;BME280;64719;52.124;6.226;2023-04-01T07:13:09;99488.91;;;10.84;100.00
76024;BME280;64719;52.124;6.226;2023-04-01T07:15:42;99493.28;;;10.90;100.00
76024;BME280;64719;52.124;6.226;2023-04-01T07:18:14;99498.69;;;10.90;100.00
76024;BME280;64719;52.124;6.226;2023-04-01T07:20:42;99506.53;;;10.86;100.00
76024;BME280;64719;52.124;6.226;2023-04-01T07:23:15;99509.47;;;10.70;100.00
76024;BME280;64719;52.124;6.226;2023-04-01T07:25:44;99507.09;;;10.88;100.00
76024;BME280;64719;52.124;6.226;2023-04-01T07:28:13;99514.06;;;10.64;100.00
76024;BME280;64719;52.124;6.226;2023-04-01T07:30:49;99518.75;;;10.89;100.00
76024;BME280;64719;52.124;6.226;2023-04-01T07:33:24;99528.19;;;10.71;100.00
76024;BME280;64719;52.124;6.226;2023-04-01T07:35:59;99533.09;;;10.74;100.00
76024;BME280;64719;52.124;6.226;2023-04-01T07:38:36;99539.34;;;10.75;100.00
76024;BME280;64719;52.124;6.226;2023-04-01T07:41:11;99538.13;;;10.51;100.00
76024;BME280;64719;52.124;6.226;2023-04-01T07:43:54;99543.25;;;10.47;100.00
76024;BME280;64719;52.124;6.226;2023-04-01T07:46:36;99546.53;;;10.49;100.00
76024;BME280;64719;52.124;6.226;2023-04-01T07:49:08;99551.09;;;10.39;100.00
76024;BME280;64719;52.124;6.226;2023-04-01T07:51:44;99559.47;;;10.37;100.00
76024;BME280;64719;52.124;6.226;2023-04-01T07:54:21;99560.00;;;10.39;100.00
76024;BME280;64719;52.124;6.226;2023-04-01T07:56:53;99564.91;;;10.37;100.00
76024;BME280;64719;52.124;6.226;2023-04-01T07:59:25;99565.66;;;10.28;100.00
76024;BME280;64719;52.124;6.226;2023-04-01T08:02:02;99568.72;;;10.41;100.00
76024;BME280;64719;52.124;6.226;2023-04-01T08:04:45;99576.91;;;10.51;100.00
76024;BME280;64719;52.124;6.226;2023-04-01T08:07:17;99581.28;;;10.57;100.00
76024;BME280;64719;52.124;6.226;2023-04-01T08:09:50;99584.16;;;10.41;100.00
76024;BME280;64719;52.124;6.226;2023-04-01T08:12:27;99582.78;;;10.38;100.00
76024;BME280;64719;52.124;6.226;2023-04-01T08:15:10;99592.56;;;10.39;100.00
76024;BME280;64719;52.124;6.226;2023-04-01T08:17:46;99600.69;;;10.34;100.00
76024;BME280;64719;52.124;6.226;2023-04-01T08:20:27;99607.00;;;10.45;100.00
76024;BME280;64719;52.124;6.226;2023-04-01T08:22:58;99606.47;;;10.53;100.00
76024;BME280;64719;52.124;6.226;2023-04-01T08:25:28;99614.91;;;10.56;100.00
76024;BME280;64719;52.124;6.226;2023-04-01T08:27:59;99610.03;;;10.53;100.00
76024;BME280;64719;52.124;6.226;2023-04-01T08:30:35;99619.69;;;10.39;100.00
76024;BME280;64719;52.124;6.226;2023-04-01T08:33:12;99617.16;;;10.28;100.00
76024;BME280;64719;52.124;6.226;2023-04-01T08:35:45;99631.13;;;10.46;100.00
76024;BME280;64719;52.124;6.226;2023-04-01T08:38:18;99615.75;;;10.57;100.00
76024;BME280;64719;52.124;6.226;2023-04-01T08:41:01;99626.13;;;10.70;100.00
76024;BME280;64719;52.124;6.226;2023-04-01T08:43:42;99635.53;;;10.57;100.00
76024;BME280;64719;52.124;6.226;2023-04-01T08:46:19;99638.13;;;10.79;100.00
76024;BME280;64719;52.124;6.226;2023-04-01T08:49:12;99641.66;;;10.84;100.00
76024;BME280;64719;52.124;6.226;2023-04-01T08:52:00;99645.28;;;11.00;100.00
76024;BME280;64719;52.124;6.226;2023-04-01T08:54:46;99644.31;;;11.21;100.00
76024;BME280;64719;52.124;6.226;2023-04-01T08:57:20;99644.56;;;11.20;100.00
76024;BME280;64719;52.124;6.226;2023-04-01T08:59:58;99659.91;;;11.46;100.00
76024;BME280;64719;52.124;6.226;2023-04-01T09:05:47;99659.81;;;12.17;99.27
76024;BME280;64719;52.124;6.226;2023-04-01T09:08:28;99668.22;;;12.91;97.57
76024;BME280;64719;52.124;6.226;2023-04-01T09:11:06;99657.06;;;12.72;96.54
76024;BME280;64719;52.124;6.226;2023-04-01T09:13:51;99674.22;;;12.63;96.59
76024;BME280;64719;52.124;6.226;2023-04-01T09:16:39;99673.56;;;13.36;96.05
76024;BME280;64719;52.124;6.226;2023-04-01T09:19:20;99678.78;;;13.13;94.24
76024;BME280;64719;52.124;6.226;2023-04-01T09:22:19;99680.97;;;13.84;94.30
76024;BME280;64719;52.124;6.226;2023-04-01T09:28:10;99680.47;;;12.73;95.14
76024;BME280;64719;52.124;6.226;2023-04-01T09:30:53;99683.44;;;12.87;97.00
76024;BME280;64719;52.124;6.226;2023-04-01T09:33:49;99688.34;;;12.95;97.09
76024;BME280;64719;52.124;6.226;2023-04-01T09:36:38;99695.44;;;13.01;96.68
76024;BME280;64719;52.124;6.226;2023-04-01T09:39:23;99699.00;;;12.81;96.77
76024;BME280;64719;52.124;6.226;2023-04-01T09:42:06;99701.72;;;12.81;97.47
76024;BME280;64719;52.124;6.226;2023-04-01T09:44:35;99698.47;;;12.54;97.57
76024;BME280;64719;52.124;6.226;2023-04-01T09:47:16;99713.41;;;12.27;99.08
76024;BME280;64719;52.124;6.226;2023-04-01T09:49:57;99712.28;;;12.13;99.16
76024;BME280;64719;52.124;6.226;2023-04-01T09:52:37;99710.13;;;12.25;99.65
76024;BME280;64719;52.124;6.226;2023-04-01T09:55:19;99711.50;;;12.47;98.90
76024;BME280;64719;52.124;6.226;2023-04-01T10:01:31;99724.75;;;13.44;95.71
76024;BME280;64719;52.124;6.226;2023-04-01T10:04:46;99728.56;;;13.48;93.15
76024;BME280;64719;52.124;6.226;2023-04-01T10:10:37;99739.97;;;13.60;91.70
76024;BME280;64719;52.124;6.226;2023-04-01T10:16:38;99741.34;;;14.16;89.70
76024;BME280;64719;52.124;6.226;2023-04-01T10:19:20;99747.94;;;14.88;88.91
76024;BME280;64719;52.124;6.226;2023-04-01T10:25:19;99751.59;;;13.86;92.56
76024;BME280;64719;52.124;6.226;2023-04-01T10:28:09;99753.50;;;13.80;91.49
76024;BME280;64719;52.124;6.226;2023-04-01T10:31:08;99755.94;;;13.87;92.01
76024;BME280;64719;52.124;6.226;2023-04-01T10:34:13;99762.81;;;14.72;90.60
76024;BME280;64719;52.124;6.226;2023-04-01T10:36:50;99761.28;;;16.35;84.29
76024;BME280;64719;52.124;6.226;2023-04-01T10:39:59;99761.22;;;17.10;81.88
76024;BME280;64719;52.124;6.226;2023-04-01T10:52:18;99764.94;;;15.42;86.69
76024;BME280;64719;52.124;6.226;2023-04-01T10:55:04;99775.69;;;15.28;86.38
76024;BME280;64719;52.124;6.226;2023-04-01T11:04:40;99781.16;;;18.15;78.42
76024;BME280;64719;52.124;6.226;2023-04-01T11:10:54;99781.69;;;20.67;65.38
76024;BME280;64719;52.124;6.226;2023-04-01T11:13:47;99780.38;;;21.70;63.10
76024;BME280;64719;52.124;6.226;2023-04-01T11:16:42;99789.50;;;21.70;66.28
76024;BME280;64719;52.124;6.226;2023-04-01T11:19:35;99795.19;;;21.74;65.20
76024;BME280;64719;52.124;6.226;2023-04-01T11:22:29;99805.63;;;22.35;62.26
76024;BME280;64719;52.124;6.226;2023-04-01T11:25:14;99798.97;;;20.25;61.17
76024;BME280;64719;52.124;6.226;2023-04-01T11:27:58;99799.84;;;19.33;65.66
76024;BME280;64719;52.124;6.226;2023-04-01T11:30:35;99802.22;;;18.69;67.96
76024;BME280;64719;52.124;6.226;2023-04-01T11:33:13;99803.63;;;19.02;69.66
76024;BME280;64719;52.124;6.226;2023-04-01T11:35:59;99811.44;;;18.86;69.66
76024;BME280;64719;52.124;6.226;2023-04-01T11:38:42;99813.56;;;17.45;73.22
76024;BME280;64719;52.124;6.226;2023-04-01T11:41:24;99820.47;;;16.55;77.09
76024;BME280;64719;52.124;6.226;2023-04-01T11:44:10;99824.84;;;16.75;76.72
76024;BME280;64719;52.124;6.226;2023-04-01T11:46:48;99830.03;;;16.76;77.23
76024;BME280;64719;52.124;6.226;2023-04-01T11:49:43;99827.63;;;16.09;78.94
76024;BME280;64719;52.124;6.226;2023-04-01T11:52:24;99833.53;;;15.97;79.53
76024;BME280;64719;52.124;6.226;2023-04-01T11:55:05;99833.22;;;15.75;80.35
76024;BME280;64719;52.124;6.226;2023-04-01T11:57:46;99838.13;;;16.02;80.55
76024;BME280;64719;52.124;6.226;2023-04-01T12:00:34;99846.59;;;16.48;79.93
76024;BME280;64719;52.124;6.226;2023-04-01T12:03:20;99852.03;;;16.90;77.13
76024;BME280;64719;52.124;6.226;2023-04-01T12:05:58;99851.50;;;17.06;74.40
76024;BME280;64719;52.124;6.226;2023-04-01T12:08:36;99854.31;;;16.83;76.35
76024;BME280;64719;52.124;6.226;2023-04-01T12:11:13;99853.56;;;16.59;75.25
76024;BME280;64719;52.124;6.226;2023-04-01T12:13:48;99866.31;;;16.87;75.43
76024;BME280;64719;52.124;6.226;2023-04-01T12:16:25;99859.78;;;16.83;77.61
76024;BME280;64719;52.124;6.226;2023-04-01T12:18:58;99872.47;;;16.79;77.66
76024;BME280;64719;52.124;6.226;2023-04-01T12:21:34;99872.53;;;17.43;73.55
76024;BME280;64719;52.124;6.226;2023-04-01T12:24:25;99874.91;;;17.81;71.75
76024;BME280;64719;52.124;6.226;2023-04-01T12:26:59;99878.50;;;18.36;69.67
76024;BME280;64719;52.124;6.226;2023-04-01T12:29:49;99880.44;;;18.22;69.52
76024;BME280;64719;52.124;6.226;2023-04-01T12:32:29;99888.72;;;17.90;72.46
76024;BME280;64719;52.124;6.226;2023-04-01T12:35:07;99892.75;;;16.78;76.29
76024;BME280;64719;52.124;6.226;2023-04-01T12:37:46;99893.47;;;16.17;77.84
76024;BME280;64719;52.124;6.226;2023-04-01T12:40:25;99898.44;;;15.63;79.10
76024;BME280;64719;52.124;6.226;2023-04-01T12:46:02;99912.38;;;15.28;82.93
76024;BME280;64719;52.124;6.226;2023-04-01T12:48:57;99915.59;;;14.48;88.14
76024;BME280;64719;52.124;6.226;2023-04-01T12:51:49;99915.66;;;14.23;90.80
76024;BME280;64719;52.124;6.226;2023-04-01T12:54:41;99916.34;;;13.65;91.95
76024;BME280;64719;52.124;6.226;2023-04-01T12:57:24;99921.72;;;12.94;95.21
76024;BME280;64719;52.124;6.226;2023-04-01T13:00:16;99929.25;;;12.62;96.53
76024;BME280;64719;52.124;6.226;2023-04-01T13:03:02;99932.28;;;12.71;96.37
76024;BME280;64719;52.124;6.226;2023-04-01T13:05:44;99936.63;;;12.72;96.04
76024;BME280;64719;52.124;6.226;2023-04-01T13:08:26;99936.34;;;12.63;96.28
76024;BME280;64719;52.124;6.226;2023-04-01T13:11:09;99957.00;;;12.64;97.06
76024;BME280;64719;52.124;6.226;2023-04-01T13:14:01;99964.91;;;12.66;96.93
76024;BME280;64719;52.124;6.226;2023-04-01T13:16:35;99970.00;;;12.47;97.04
76024;BME280;64719;52.124;6.226;2023-04-01T13:19:07;99973.81;;;12.46;96.96
76024;BME280;64719;52.124;6.226;2023-04-01T13:21:46;99979.22;;;12.36;97.38
76024;BME280;64719;52.124;6.226;2023-04-01T13:24:33;99973.50;;;12.38;97.88
76024;BME280;64719;52.124;6.226;2023-04-01T13:27:10;99982.56;;;12.58;97.70
76024;BME280;64719;52.124;6.226;2023-04-01T13:29:43;99990.78;;;12.68;97.46
76024;BME280;64719;52.124;6.226;2023-04-01T13:32:19;99993.31;;;12.85;96.99
76024;BME280;64719;52.124;6.226;2023-04-01T13:34:59;99990.03;;;12.83;96.86
76024;BME280;64719;52.124;6.226;2023-04-01T13:37:41;99996.00;;;12.80;97.06
76024;BME280;64719;52.124;6.226;2023-04-01T13:40:25;99997.09;;;12.84;96.67
76024;BME280;64719;52.124;6.226;2023-04-01T13:42:57;100003.06;;;12.76;96.21
76024;BME280;64719;52.124;6.226;2023-04-01T13:45:29;100006.22;;;13.15;96.47
76024;BME280;64719;52.124;6.226;2023-04-01T13:48:24;100006.47;;;13.08;95.67
76024;BME280;64719;52.124;6.226;2023-04-01T13:51:02;100015.75;;;13.12;95.05
76024;BME280;64719;52.124;6.226;2023-04-01T13:56:33;100012.28;;;13.42;94.89
76024;BME280;64719;52.124;6.226;2023-04-01T14:02:31;100029.69;;;13.26;100.00
76024;BME280;64719;52.124;6.226;2023-04-01T14:05:15;100026.16;;;13.40;98.47
76024;BME280;64719;52.124;6.226;2023-04-01T14:07:58;100033.00;;;13.53;94.72
76024;BME280;64719;52.124;6.226;2023-04-01T14:10:31;100035.41;;;13.34;93.35
76024;BME280;64719;52.124;6.226;2023-04-01T14:13:07;100036.03;;;13.66;93.19
76024;BME280;64719;52.124;6.226;2023-04-01T14:15:59;100049.91;;;13.85;92.73
76024;BME280;64719;52.124;6.226;2023-04-01T14:18:45;100039.81;;;13.55;92.90
76024;BME280;64719;52.124;6.226;2023-04-01T14:21:21;100046.78;;;13.11;94.30
76024;BME280;64719;52.124;6.226;2023-04-01T14:24:02;100064.78;;;13.12;95.02
76024;BME280;64719;52.124;6.226;2023-04-01T14:29:48;100062.00;;;13.02;96.41
76024;BME280;64719;52.124;6.226;2023-04-01T14:32:29;100066.94;;;13.05;95.62
76024;BME280;64719;52.124;6.226;2023-04-01T14:35:12;100066.13;;;13.10;95.12